sensor_id;sensor_type;location;lat;lon;timestamp;temperature;humidity
8988;DHT22;4529;51.360;12.474;2023-04-03T00:02:16;5.10;99.90
8988;DHT22;4529;51.360;12.474;2023-04-03T00:07:25;5.00;99.90
8988;DHT22;4529;51.360;12.474;2023-04-03T00:12:28;5.00;99.90
8988;DHT22;4529;51.360;12.474;2023-04-03T00:17:32;5.10;99.90
8988;DHT22;4529;51.360;12.474;2023-04-03T00:22:36;5.00;99.90
8988;DHT22;4529;51.360;12.474;2023-04-03T00:27:40;5.00;99.90
8988;DHT22;4529;51.360;12.474;2023-04-03T00:32:44;5.00;99.90
8988;DHT22;4529;51.360;12.474;2023-04-03T00:37:50;4.90;99.90
8988;DHT22;4529;51.360;12.474;2023-04-03T00:42:56;4.80;99.90
8988;DHT22;4529;51.360;12.474;2023-04-03T00:47:57;4.80;99.90
8988;DHT22;4529;51.360;12.474;2023-04-03T00:53:01;4.70;99.90
8988;DHT22;4529;51.360;12.474;2023-04-03T00:58:06;4.70;99.90
8988;DHT22;4529;51.360;12.474;2023-04-03T01:03:09;4.70;99.90
8988;DHT22;4529;51.360;12.474;2023-04-03T01:08:12;4.50;99.90
8988;DHT22;4529;51.360;12.474;2023-04-03T01:13:25;4.60;99.90
8988;DHT22;4529;51.360;12.474;2023-04-03T01:18:27;4.50;99.90
8988;DHT22;4529;51.360;12.474;2023-04-03T01:24:05;4.40;99.90
8988;DHT22;4529;51.360;12.474;2023-04-03T01:29:05;4.30;99.90
8988;DHT22;4529;51.360;12.474;2023-04-03T01:34:09;4.20;99.90
8988;DHT22;4529;51.360;12.474;2023-04-03T01:39:12;4.10;99.90
8988;DHT22;4529;51.360;12.474;2023-04-03T01:44:16;4.10;99.90
8988;DHT22;4529;51.360;12.474;2023-04-03T01:49:20;4.00;99.90
8988;DHT22;4529;51.360;12.474;2023-04-03T01:54:24;4.00;99.90
8988;DHT22;4529;51.360;12.474;2023-04-03T01:59:28;3.90;99.90
8988;DHT22;4529;51.360;12.474;2023-04-03T02:04:31;3.90;99.90
8988;DHT22;4529;51.360;12.474;2023-04-03T02:09:35;3.80;99.90
8988;DHT22;4529;51.360;12.474;2023-04-03T02:14:38;3.80;99.90
8988;DHT22;4529;51.360;12.474;2023-04-03T02:19:42;3.80;99.90
8988;DHT22;4529;51.360;12.474;2023-04-03T02:24:46;3.70;99.90
8988;DHT22;4529;51.360;12.474;2023-04-03T02:29:51;3.70;99.90
8988;DHT22;4529;51.360;12.474;2023-04-03T02:34:54;3.70;99.90
8988;DHT22;4529;51.360;12.474;2023-04-03T02:39:57;3.70;99.90
8988;DHT22;4529;51.360;12.474;2023-04-03T02:45:01;3.70;99.90
8988;DHT22;4529;51.360;12.474;2023-04-03T02:50:05;3.70;99.90
8988;DHT22;4529;51.360;12.474;2023-04-03T02:55:09;3.60;99.90
8988;DHT22;4529;51.360;12.474;2023-04-03T03:00:13;3.50;99.90
8988;DHT22;4529;51.360;12.474;2023-04-03T03:05:17;3.40;99.90
8988;DHT22;4529;51.360;12.474;2023-04-03T03:10:21;3.40;99.90
8988;DHT22;4529;51.360;12.474;2023-04-03T03:15:25;3.40;99.90
8988;DHT22;4529;51.360;12.474;2023-04-03T03:20:28;3.30;99.90
8988;DHT22;4529;51.360;12.474;2023-04-03T03:25:32;3.30;99.90
8988;DHT22;4529;51.360;12.474;2023-04-03T03:30:36;3.10;99.90
8988;DHT22;4529;51.360;12.474;2023-04-03T03:35:40;3.10;99.90
8988;DHT22;4529;51.360;12.474;2023-04-03T03:40:44;3.10;99.90
8988;DHT22;4529;51.360;12.474;2023-04-03T03:45:51;3.10;99.90
8988;DHT22;4529;51.360;12.474;2023-04-03T03:50:54;3.00;99.90
8988;DHT22;4529;51.360;12.474;2023-04-03T03:55:58;3.00;99.90
8988;DHT22;4529;51.360;12.474;2023-04-03T04:01:03;3.00;99.90
8988;DHT22;4529;51.360;12.474;2023-04-03T04:06:06;2.90;99.90
8988;DHT22;4529;51.360;12.474;2023-04-03T04:11:10;2.80;99.90
8988;DHT22;4529;51.360;12.474;2023-04-03T04:16:13;2.90;99.90
8988;DHT22;4529;51.360;12.474;2023-04-03T04:21:17;2.80;99.90
8988;DHT22;4529;51.360;12.474;2023-04-03T04:26:21;2.80;99.90
8988;DHT22;4529;51.360;12.474;2023-04-03T04:31:25;2.80;99.90
8988;DHT22;4529;51.360;12.474;2023-04-03T04:36:29;2.80;99.90
8988;DHT22;4529;51.360;12.474;2023-04-03T04:41:33;2.80;99.90
8988;DHT22;4529;51.360;12.474;2023-04-03T04:46:36;2.80;99.90
8988;DHT22;4529;51.360;12.474;2023-04-03T04:51:40;2.70;99.90
8988;DHT22;4529;51.360;12.474;2023-04-03T04:56:43;2.80;99.90
8988;DHT22;4529;51.360;12.474;2023-04-03T05:01:48;2.70;99.90
8988;DHT22;4529;51.360;12.474;2023-04-03T05:06:52;2.70;99.90
8988;DHT22;4529;51.360;12.474;2023-04-03T05:11:56;2.70;99.90
8988;DHT22;4529;51.360;12.474;2023-04-03T05:17:00;2.70;99.90
8988;DHT22;4529;51.360;12.474;2023-04-03T05:22:04;2.70;99.90
8988;DHT22;4529;51.360;12.474;2023-04-03T05:27:08;2.70;99.90
8988;DHT22;4529;51.360;12.474;2023-04-03T05:32:11;2.80;99.90
8988;DHT22;4529;51.360;12.474;2023-04-03T05:37:15;2.80;99.90
8988;DHT22;4529;51.360;12.474;2023-04-03T05:42:18;2.90;99.90
8988;DHT22;4529;51.360;12.474;2023-04-03T05:47:22;2.70;99.90
8988;DHT22;4529;51.360;12.474;2023-04-03T05:52:28;2.50;99.90
8988;DHT22;4529;51.360;12.474;2023-04-03T05:57:30;2.50;99.90
8988;DHT22;4529;51.360;12.474;2023-04-03T06:02:33;2.40;99.90
8988;DHT22;4529;51.360;12.474;2023-04-03T06:07:37;2.40;99.90
8988;DHT22;4529;51.360;12.474;2023-04-03T06:12:41;2.50;99.90
8988;DHT22;4529;51.360;12.474;2023-04-03T06:17:45;2.70;99.90
8988;DHT22;4529;51.360;12.474;2023-04-03T06:22:49;2.90;99.90
8988;DHT22;4529;51.360;12.474;2023-04-03T06:27:53;3.00;99.90
8988;DHT22;4529;51.360;12.474;2023-04-03T06:32:58;3.20;99.90
8988;DHT22;4529;51.360;12.474;2023-04-03T06:38:01;3.20;99.90
8988;DHT22;4529;51.360;12.474;2023-04-03T06:43:05;3.30;99.90
8988;DHT22;4529;51.360;12.474;2023-04-03T06:48:09;3.50;99.90
8988;DHT22;4529;51.360;12.474;2023-04-03T06:53:12;3.50;99.90
8988;DHT22;4529;51.360;12.474;2023-04-03T06:58:16;3.70;99.90
8988;DHT22;4529;51.360;12.474;2023-04-03T07:03:20;3.70;99.90
8988;DHT22;4529;51.360;12.474;2023-04-03T07:08:24;3.70;99.90
8988;DHT22;4529;51.360;12.474;2023-04-03T07:13:29;3.80;99.90
8988;DHT22;4529;51.360;12.474;2023-04-03T07:18:33;3.70;99.90
8988;DHT22;4529;51.360;12.474;2023-04-03T07:23:36;3.90;99.90
8988;DHT22;4529;51.360;12.474;2023-04-03T07:28:39;4.00;99.90
8988;DHT22;4529;51.360;12.474;2023-04-03T07:33:43;4.20;99.90
8988;DHT22;4529;51.360;12.474;2023-04-03T07:38:47;4.30;99.90
8988;DHT22;4529;51.360;12.474;2023-04-03T07:43:51;4.50;99.90
8988;DHT22;4529;51.360;12.474;2023-04-03T07:48:55;4.40;99.90
8988;DHT22;4529;51.360;12.474;2023-04-03T07:53:58;4.50;99.90
8988;DHT22;4529;51.360;12.474;2023-04-03T07:59:02;4.60;99.90
8988;DHT22;4529;51.360;12.474;2023-04-03T08:04:05;4.80;99.90
8988;DHT22;4529;51.360;12.474;2023-04-03T08:09:09;5.20;99.90
8988;DHT22;4529;51.360;12.474;2023-04-03T08:14:13;4.70;99.90
8988;DHT22;4529;51.360;12.474;2023-04-03T08:19:16;4.70;99.90
8988;DHT22;4529;51.360;12.474;2023-04-03T08:24:20;4.70;99.90
8988;DHT22;4529;51.360;12.474;2023-04-03T08:29:24;4.80;99.90
8988;DHT22;4529;51.360;12.474;2023-04-03T08:34:27;5.10;99.90
8988;DHT22;4529;51.360;12.474;2023-04-03T08:39:30;5.20;99.90
8988;DHT22;4529;51.360;12.474;2023-04-03T08:44:47;5.80;99.90
8988;DHT22;4529;51.360;12.474;2023-04-03T08:49:59;5.80;99.90
8988;DHT22;4529;51.360;12.474;2023-04-03T08:55:07;6.00;99.90
8988;DHT22;4529;51.360;12.474;2023-04-03T09:00:23;5.90;99.90
8988;DHT22;4529;51.360;12.474;2023-04-03T09:10:34;5.90;99.90
8988;DHT22;4529;51.360;12.474;2023-04-03T09:15:37;5.90;99.90
8988;DHT22;4529;51.360;12.474;2023-04-03T09:26:05;6.00;99.90
8988;DHT22;4529;51.360;12.474;2023-04-03T09:31:24;6.40;99.90
8988;DHT22;4529;51.360;12.474;2023-04-03T09:36:46;6.50;99.90
8988;DHT22;4529;51.360;12.474;2023-04-03T09:42:02;6.50;99.90
8988;DHT22;4529;51.360;12.474;2023-04-03T09:47:30;6.40;99.90
8988;DHT22;4529;51.360;12.474;2023-04-03T09:52:32;6.40;99.90
8988;DHT22;4529;51.360;12.474;2023-04-03T09:57:36;6.30;99.90
8988;DHT22;4529;51.360;12.474;2023-04-03T10:02:40;6.30;99.90
8988;DHT22;4529;51.360;12.474;2023-04-03T10:07:43;6.30;99.90
8988;DHT22;4529;51.360;12.474;2023-04-03T10:12:46;6.30;99.90
8988;DHT22;4529;51.360;12.474;2023-04-03T10:17:57;6.40;99.90
8988;DHT22;4529;51.360;12.474;2023-04-03T10:23:29;6.40;99.90
8988;DHT22;4529;51.360;12.474;2023-04-03T10:28:57;6.40;99.90
8988;DHT22;4529;51.360;12.474;2023-04-03T10:34:37;6.50;99.90
8988;DHT22;4529;51.360;12.474;2023-04-03T10:39:36;6.50;99.90
8988;DHT22;4529;51.360;12.474;2023-04-03T10:45:17;6.50;99.90
8988;DHT22;4529;51.360;12.474;2023-04-03T10:50:30;6.80;99.90
8988;DHT22;4529;51.360;12.474;2023-04-03T10:55:36;6.80;99.90
8988;DHT22;4529;51.360;12.474;2023-04-03T11:00:44;6.70;99.90
8988;DHT22;4529;51.360;12.474;2023-04-03T11:05:48;6.50;99.90
8988;DHT22;4529;51.360;12.474;2023-04-03T11:10:49;6.60;99.90
8988;DHT22;4529;51.360;12.474;2023-04-03T11:15:53;6.60;99.90
8988;DHT22;4529;51.360;12.474;2023-04-03T11:26:21;6.70;99.90
8988;DHT22;4529;51.360;12.474;2023-04-03T11:31:43;6.70;99.90
8988;DHT22;4529;51.360;12.474;2023-04-03T11:36:53;6.90;99.90
8988;DHT22;4529;51.360;12.474;2023-04-03T11:41:53;7.00;99.90
8988;DHT22;4529;51.360;12.474;2023-04-03T11:47:00;7.00;99.90
8988;DHT22;4529;51.360;12.474;2023-04-03T11:52:08;7.10;99.90
8988;DHT22;4529;51.360;12.474;2023-04-03T11:57:46;7.10;99.90
8988;DHT22;4529;51.360;12.474;2023-04-03T12:02:48;7.10;99.90
8988;DHT22;4529;51.360;12.474;2023-04-03T12:08:24;7.00;99.90
8988;DHT22;4529;51.360;12.474;2023-04-03T12:13:19;7.00;99.90
8988;DHT22;4529;51.360;12.474;2023-04-03T12:23:36;7.30;99.90
8988;DHT22;4529;51.360;12.474;2023-04-03T12:28:39;7.40;99.90
8988;DHT22;4529;51.360;12.474;2023-04-03T12:34:00;7.20;99.90
8988;DHT22;4529;51.360;12.474;2023-04-03T12:44:56;7.10;99.90
8988;DHT22;4529;51.360;12.474;2023-04-03T12:49:59;7.10;99.90
8988;DHT22;4529;51.360;12.474;2023-04-03T12:55:02;7.20;99.90
8988;DHT22;4529;51.360;12.474;2023-04-03T13:00:22;7.10;99.90
8988;DHT22;4529;51.360;12.474;2023-04-03T13:05:22;7.10;99.90
8988;DHT22;4529;51.360;12.474;2023-04-03T13:10:25;7.20;99.90
8988;DHT22;4529;51.360;12.474;2023-04-03T13:15:30;7.20;99.90
8988;DHT22;4529;51.360;12.474;2023-04-03T13:20:33;7.20;99.90
8988;DHT22;4529;51.360;12.474;2023-04-03T13:25:40;7.20;99.90
8988;DHT22;4529;51.360;12.474;2023-04-03T13:30:41;7.20;99.90
8988;DHT22;4529;51.360;12.474;2023-04-03T13:35:44;7.10;99.90
8988;DHT22;4529;51.360;12.474;2023-04-03T13:40:51;7.10;99.90
8988;DHT22;4529;51.360;12.474;2023-04-03T13:51:20;7.00;99.90
8988;DHT22;4529;51.360;12.474;2023-04-03T14:01:42;6.90;99.90
8988;DHT22;4529;51.360;12.474;2023-04-03T14:06:44;6.90;99.90
8988;DHT22;4529;51.360;12.474;2023-04-03T14:11:48;6.90;99.90
8988;DHT22;4529;51.360;12.474;2023-04-03T14:16:52;6.90;99.90
8988;DHT22;4529;51.360;12.474;2023-04-03T14:21:55;6.90;99.90
8988;DHT22;4529;51.360;12.474;2023-04-03T14:26:58;6.80;99.90
8988;DHT22;4529;51.360;12.474;2023-04-03T14:32:03;6.70;99.90
8988;DHT22;4529;51.360;12.474;2023-04-03T14:37:11;6.70;99.90
8988;DHT22;4529;51.360;12.474;2023-04-03T14:42:16;6.60;99.90
8988;DHT22;4529;51.360;12.474;2023-04-03T14:47:22;6.60;99.90
8988;DHT22;4529;51.360;12.474;2023-04-03T14:52:31;6.60;99.90
8988;DHT22;4529;51.360;12.474;2023-04-03T14:57:33;6.50;99.90
8988;DHT22;4529;51.360;12.474;2023-04-03T15:02:37;6.50;99.90
8988;DHT22;4529;51.360;12.474;2023-04-03T15:07:43;6.40;99.90
8988;DHT22;4529;51.360;12.474;2023-04-03T15:12:46;6.40;99.90
8988;DHT22;4529;51.360;12.474;2023-04-03T15:17:53;6.40;99.90
8988;DHT22;4529;51.360;12.474;2023-04-03T15:22:56;6.40;99.90
8988;DHT22;4529;51.360;12.474;2023-04-03T15:28:00;6.30;99.90
8988;DHT22;4529;51.360;12.474;2023-04-03T15:33:03;6.30;99.90
8988;DHT22;4529;51.360;12.474;2023-04-03T15:38:07;6.20;99.90
8988;DHT22;4529;51.360;12.474;2023-04-03T15:43:11;6.20;99.90
8988;DHT22;4529;51.360;12.474;2023-04-03T15:48:16;6.10;99.90
8988;DHT22;4529;51.360;12.474;2023-04-03T15:53:19;6.10;99.90
8988;DHT22;4529;51.360;12.474;2023-04-03T15:58:23;6.10;99.90
8988;DHT22;4529;51.360;12.474;2023-04-03T16:03:26;6.10;99.90
8988;DHT22;4529;51.360;12.474;2023-04-03T16:08:30;6.10;99.90
8988;DHT22;4529;51.360;12.474;2023-04-03T16:13:34;6.20;99.90
8988;DHT22;4529;51.360;12.474;2023-04-03T16:18:38;6.20;99.90
8988;DHT22;4529;51.360;12.474;2023-04-03T16:23:43;6.20;99.90
8988;DHT22;4529;51.360;12.474;2023-04-03T16:28:46;6.10;99.90
8988;DHT22;4529;51.360;12.474;2023-04-03T16:33:49;6.20;99.90
8988;DHT22;4529;51.360;12.474;2023-04-03T16:38:53;6.20;99.90
8988;DHT22;4529;51.360;12.474;2023-04-03T16:43:57;6.20;99.90
8988;DHT22;4529;51.360;12.474;2023-04-03T16:49:01;6.20;99.90
8988;DHT22;4529;51.360;12.474;2023-04-03T16:54:05;6.20;99.90
8988;DHT22;4529;51.360;12.474;2023-04-03T16:59:09;6.20;99.90
8988;DHT22;4529;51.360;12.474;2023-04-03T17:04:14;6.30;99.90
8988;DHT22;4529;51.360;12.474;2023-04-03T17:09:17;6.30;99.90
8988;DHT22;4529;51.360;12.474;2023-04-03T17:14:21;6.20;99.90
8988;DHT22;4529;51.360;12.474;2023-04-03T17:19:25;6.30;99.90
8988;DHT22;4529;51.360;12.474;2023-04-03T17:24:29;6.30;99.90
8988;DHT22;4529;51.360;12.474;2023-04-03T17:29:33;6.30;99.90
8988;DHT22;4529;51.360;12.474;2023-04-03T17:34:36;6.20;99.90
8988;DHT22;4529;51.360;12.474;2023-04-03T17:39:39;6.30;99.90
8988;DHT22;4529;51.360;12.474;2023-04-03T17:44:44;6.30;99.90
8988;DHT22;4529;51.360;12.474;2023-04-03T17:49:48;6.40;99.90
8988;DHT22;4529;51.360;12.474;2023-04-03T17:54:52;6.40;99.90
8988;DHT22;4529;51.360;12.474;2023-04-03T17:59:56;6.30;99.90
8988;DHT22;4529;51.360;12.474;2023-04-03T18:05:00;6.30;99.90
8988;DHT22;4529;51.360;12.474;2023-04-03T18:10:03;6.30;99.90
8988;DHT22;4529;51.360;12.474;2023-04-03T18:15:07;6.30;99.90
8988;DHT22;4529;51.360;12.474;2023-04-03T18:20:11;6.20;99.90
8988;DHT22;4529;51.360;12.474;2023-04-03T18:25:15;6.20;99.90
8988;DHT22;4529;51.360;12.474;2023-04-03T18:30:18;6.20;99.90
8988;DHT22;4529;51.360;12.474;2023-04-03T18:35:22;6.20;99.90
8988;DHT22;4529;51.360;12.474;2023-04-03T18:40:27;6.10;99.90
8988;DHT22;4529;51.360;12.474;2023-04-03T18:45:31;6.20;99.90
8988;DHT22;4529;51.360;12.474;2023-04-03T18:50:34;6.10;99.90
8988;DHT22;4529;51.360;12.474;2023-04-03T18:55:38;6.20;99.90
8988;DHT22;4529;51.360;12.474;2023-04-03T19:00:41;6.20;99.90
8988;DHT22;4529;51.360;12.474;2023-04-03T19:05:45;6.20;99.90
8988;DHT22;4529;51.360;12.474;2023-04-03T19:10:49;6.20;99.90
8988;DHT22;4529;51.360;12.474;2023-04-03T19:15:53;6.10;99.90
8988;DHT22;4529;51.360;12.474;2023-04-03T19:20:58;6.10;99.90
8988;DHT22;4529;51.360;12.474;2023-04-03T19:26:05;6.10;99.90
8988;DHT22;4529;51.360;12.474;2023-04-03T19:31:14;6.10;99.90
8988;DHT22;4529;51.360;12.474;2023-04-03T19:36:17;6.00;99.90
8988;DHT22;4529;51.360;12.474;2023-04-03T19:41:21;5.80;99.90
8988;DHT22;4529;51.360;12.474;2023-04-03T19:46:26;5.60;99.90
8988;DHT22;4529;51.360;12.474;2023-04-03T19:51:28;5.50;99.90
8988;DHT22;4529;51.360;12.474;2023-04-03T19:56:32;5.40;99.90
8988;DHT22;4529;51.360;12.474;2023-04-03T20:01:36;5.30;99.90
8988;DHT22;4529;51.360;12.474;2023-04-03T20:06:40;5.30;99.90
8988;DHT22;4529;51.360;12.474;2023-04-03T20:11:43;5.30;99.90
8988;DHT22;4529;51.360;12.474;2023-04-03T20:16:47;5.20;99.90
8988;DHT22;4529;51.360;12.474;2023-04-03T20:21:52;5.20;99.90
8988;DHT22;4529;51.360;12.474;2023-04-03T20:26:56;5.10;99.90
8988;DHT22;4529;51.360;12.474;2023-04-03T20:32:00;5.10;99.90
8988;DHT22;4529;51.360;12.474;2023-04-03T20:37:04;5.10;99.90
8988;DHT22;4529;51.360;12.474;2023-04-03T20:42:08;5.10;99.90
8988;DHT22;4529;51.360;12.474;2023-04-03T20:47:11;5.00;99.90
8988;DHT22;4529;51.360;12.474;2023-04-03T20:52:15;5.00;99.90
8988;DHT22;4529;51.360;12.474;2023-04-03T20:57:19;5.00;99.90
8988;DHT22;4529;51.360;12.474;2023-04-03T21:02:23;5.00;99.90
8988;DHT22;4529;51.360;12.474;2023-04-03T21:19:26;5.00;99.90
8988;DHT22;4529;51.360;12.474;2023-04-03T21:24:30;5.00;99.90
8988;DHT22;4529;51.360;12.474;2023-04-03T21:29:34;5.00;99.90
8988;DHT22;4529;51.360;12.474;2023-04-03T21:34:38;5.00;99.90
8988;DHT22;4529;51.360;12.474;2023-04-03T21:39:41;5.00;99.90
8988;DHT22;4529;51.360;12.474;2023-04-03T21:44:45;5.00;99.90
8988;DHT22;4529;51.360;12.474;2023-04-03T21:49:48;4.90;99.90
8988;DHT22;4529;51.360;12.474;2023-04-03T21:54:52;4.90;99.90
8988;DHT22;4529;51.360;12.474;2023-04-03T21:59:57;4.80;99.90
8988;DHT22;4529;51.360;12.474;2023-04-03T22:05:01;4.80;99.90
8988;DHT22;4529;51.360;12.474;2023-04-03T22:10:05;4.80;99.90
8988;DHT22;4529;51.360;12.474;2023-04-03T22:15:08;4.80;99.90
8988;DHT22;4529;51.360;12.474;2023-04-03T22:20:13;4.80;99.90
8988;DHT22;4529;51.360;12.474;2023-04-03T22:25:16;4.80;99.90
8988;DHT22;4529;51.360;12.474;2023-04-03T22:30:20;4.70;99.90
8988;DHT22;4529;51.360;12.474;2023-04-03T22:35:23;4.70;99.90
8988;DHT22;4529;51.360;12.474;2023-04-03T22:40:26;4.70;99.90
8988;DHT22;4529;51.360;12.474;2023-04-03T22:45:31;4.60;99.90
8988;DHT22;4529;51.360;12.474;2023-04-03T22:50:35;4.60;99.90
8988;DHT22;4529;51.360;12.474;2023-04-03T22:55:39;4.50;99.90
8988;DHT22;4529;51.360;12.474;2023-04-03T23:00:43;4.60;99.90
8988;DHT22;4529;51.360;12.474;2023-04-03T23:05:46;4.50;99.90
8988;DHT22;4529;51.360;12.474;2023-04-03T23:10:53;4.40;99.90
8988;DHT22;4529;51.360;12.474;2023-04-03T23:15:58;4.50;99.90
8988;DHT22;4529;51.360;12.474;2023-04-03T23:21:01;4.40;99.90
8988;DHT22;4529;51.360;12.474;2023-04-03T23:26:06;4.40;99.90
8988;DHT22;4529;51.360;12.474;2023-04-03T23:31:09;4.40;99.90
8988;DHT22;4529;51.360;12.474;2023-04-03T23:36:12;4.30;99.90
8988;DHT22;4529;51.360;12.474;2023-04-03T23:41:16;4.30;99.90
8988;DHT22;4529;51.360;12.474;2023-04-03T23:46:19;4.30;99.90
8988;DHT22;4529;51.360;12.474;2023-04-03T23:51:23;4.30;99.90
8988;DHT22;4529;51.360;12.474;2023-04-03T23:56:27;4.30;99.90
